Aiken, Texas
Current Conditions -  °F | °C
As of 12:15 AM on Sunday 26 Oct 2014 (Local Time) from KPVW Reporting Station
Clear Clear  
Wind Chill: 60°   Ceiling: Unl
Heat Index: 60°   Visibility: 10mi
Dew Point: 51°   Wind: 8mph
Humidity: 71%   Direction: 200°SSW
Pressure: 30.07"   Gusts: NA
Location:  34.14°N, 101.53°W
Report Text: KPVW 260515Z AUTO 20007KT 10SM CLR 16/10 A3007 RMK AO2 T01550103
Loading
Personal Weather Stations






























Interactive Weather Map New forecast layout! Learn more

10-Day Weather Forecast

Advertisements
Track Severe Weather on mobile